createdAt,value
2019-03-20T00:00:25.044Z,1005.95
2019-03-20T00:01:25.044Z,1005.93
2019-03-20T00:02:25.025Z,1005.96
2019-03-20T00:03:25.974Z,1005.89
2019-03-20T00:04:25.002Z,1005.93
2019-03-20T00:05:24.997Z,1005.93
2019-03-20T00:06:24.981Z,1005.93
2019-03-20T00:07:24.972Z,1005.9
2019-03-20T00:08:24.965Z,1005.92
2019-03-20T00:09:24.971Z,1005.92
2019-03-20T00:10:24.949Z,1005.93
2019-03-20T00:11:24.932Z,1005.91
2019-03-20T00:12:24.920Z,1005.94
2019-03-20T00:13:24.910Z,1005.96
2019-03-20T00:14:24.905Z,1006
2019-03-20T00:15:24.889Z,1006
2019-03-20T00:16:24.881Z,1006.02
2019-03-20T00:17:24.871Z,1006.05
2019-03-20T00:18:24.892Z,1006.08
2019-03-20T00:19:24.850Z,1006.06
2019-03-20T00:20:24.838Z,1006.05
2019-03-20T00:21:24.823Z,1006.04
2019-03-20T00:22:24.814Z,1006.03
2019-03-20T00:23:24.804Z,1006.03
2019-03-20T00:24:24.792Z,1006.06
2019-03-20T00:25:24.784Z,1006.07
2019-03-20T00:26:24.781Z,1006.02
2019-03-20T00:27:24.769Z,1006.03
2019-03-20T00:28:24.751Z,1006.07
2019-03-20T00:29:24.739Z,1006.11
2019-03-20T00:30:24.729Z,1006.06
2019-03-20T00:31:24.727Z,1006.05
2019-03-20T00:32:24.711Z,1006.05
2019-03-20T00:33:24.704Z,1006.08
2019-03-20T00:34:24.689Z,1006.06
2019-03-20T00:35:24.676Z,1006.07
2019-03-20T00:36:24.664Z,1006.04
2019-03-20T00:37:24.659Z,1006.07
2019-03-20T00:38:24.643Z,1006.05
2019-03-20T00:39:24.632Z,1006.09
2019-03-20T00:40:24.621Z,1006.09
2019-03-20T00:41:24.611Z,1006.13
2019-03-20T00:42:24.601Z,1006.1
2019-03-20T00:43:24.607Z,1006.09
2019-03-20T00:44:24.578Z,1006.08
2019-03-20T00:45:24.567Z,1006.1
2019-03-20T00:46:24.558Z,1006.08
2019-03-20T00:47:24.548Z,1006.1
2019-03-20T00:48:24.541Z,1006.09
2019-03-20T00:49:24.528Z,1006.11
2019-03-20T00:50:24.528Z,1006.1
2019-03-20T00:51:24.503Z,1006.05
2019-03-20T00:52:24.496Z,1006.1
2019-03-20T00:53:24.481Z,1006.11
2019-03-20T00:54:24.473Z,1006.08
2019-03-20T00:55:24.465Z,1006.07
2019-03-20T00:56:24.452Z,1006.09
2019-03-20T00:57:24.443Z,1006.09
2019-03-20T00:58:24.427Z,1006.1
2019-03-20T00:59:24.431Z,1006.07
2019-03-20T01:00:24.409Z,1006.06
2019-03-20T01:01:24.396Z,1006.08
2019-03-20T01:02:24.383Z,1006.07
2019-03-20T01:03:24.372Z,1006.04
2019-03-20T01:04:24.362Z,1006.03
2019-03-20T01:05:24.353Z,1006.04
2019-03-20T01:06:24.347Z,1006.02
2019-03-20T01:07:24.328Z,1006.03
2019-03-20T01:08:24.324Z,1006.06
2019-03-20T01:09:24.309Z,1006.09
2019-03-20T01:10:24.296Z,1006.03
2019-03-20T01:11:24.286Z,1006.04
2019-03-20T01:12:24.280Z,1006.01
2019-03-20T01:13:24.266Z,1006.05
2019-03-20T01:14:24.269Z,1005.99
2019-03-20T01:15:24.242Z,1005.97
2019-03-20T01:16:24.234Z,1006.02
2019-03-20T01:17:24.223Z,1005.99
2019-03-20T01:18:24.210Z,1006.02
2019-03-20T01:19:24.207Z,1006
2019-03-20T01:20:24.193Z,1005.99
2019-03-20T01:21:24.179Z,1006
2019-03-20T01:22:24.167Z,1006.02
2019-03-20T01:23:24.164Z,1005.99
2019-03-20T01:24:24.949Z,1005.95
2019-03-20T01:25:24.140Z,1005.91
2019-03-20T01:26:24.126Z,1005.9
2019-03-20T01:27:24.118Z,1005.91
2019-03-20T01:28:24.103Z,1005.89
2019-03-20T01:29:24.093Z,1005.9
2019-03-20T01:30:24.082Z,1005.91
2019-03-20T01:31:24.070Z,1005.94
2019-03-20T01:32:24.059Z,1005.96
2019-03-20T01:33:24.048Z,1005.92
2019-03-20T01:34:24.039Z,1005.97
2019-03-20T01:35:24.311Z,1005.92
2019-03-20T01:36:24.017Z,1005.93
2019-03-20T01:37:24.004Z,1005.92
2019-03-20T01:38:24.002Z,1005.88
2019-03-20T01:39:23.984Z,1005.91
2019-03-20T01:40:23.971Z,1005.89
2019-03-20T01:41:23.962Z,1005.93
2019-03-20T01:42:23.953Z,1005.95
2019-03-20T01:43:23.937Z,1005.94
2019-03-20T01:44:23.929Z,1005.96
2019-03-20T01:45:23.918Z,1005.96
2019-03-20T01:46:23.909Z,1005.96
2019-03-20T01:47:23.894Z,1005.98
2019-03-20T01:48:23.887Z,1005.97
2019-03-20T01:49:23.875Z,1006
2019-03-20T01:50:23.863Z,1005.99
2019-03-20T01:51:23.854Z,1006
2019-03-20T01:52:23.839Z,1005.98
2019-03-20T01:53:23.829Z,1006.01
2019-03-20T01:54:23.822Z,1005.97
2019-03-20T01:55:23.808Z,1006.03
2019-03-20T01:56:23.810Z,1005.97
2019-03-20T01:57:23.795Z,1006
2019-03-20T01:58:23.773Z,1005.96
2019-03-20T01:59:23.769Z,1005.94
2019-03-20T02:00:23.750Z,1005.93
2019-03-20T02:01:23.746Z,1005.91
2019-03-20T02:02:23.728Z,1005.9
2019-03-20T02:03:23.722Z,1005.9
2019-03-20T02:04:23.710Z,1005.88
2019-03-20T02:05:34.599Z,1005.9
2019-03-20T02:06:23.693Z,1005.88
2019-03-20T02:07:23.685Z,1005.91
2019-03-20T02:08:23.668Z,1005.95
2019-03-20T02:09:23.651Z,1005.92
2019-03-20T02:10:23.649Z,1005.92
2019-03-20T02:11:23.652Z,1005.93
2019-03-20T02:12:23.621Z,1005.96
2019-03-20T02:13:23.613Z,1005.94
2019-03-20T02:14:23.593Z,1005.9
2019-03-20T02:15:23.587Z,1005.93
2019-03-20T02:16:23.573Z,1005.93
2019-03-20T02:17:23.568Z,1005.95
2019-03-20T02:18:23.553Z,1005.95
2019-03-20T02:19:23.549Z,1005.98
2019-03-20T02:20:23.532Z,1005.98
2019-03-20T02:21:23.518Z,1005.93
2019-03-20T02:22:23.508Z,1005.97
2019-03-20T02:23:23.497Z,1005.96
2019-03-20T02:24:23.485Z,1005.97
2019-03-20T02:25:23.473Z,1005.98
2019-03-20T02:26:23.463Z,1005.99
2019-03-20T02:27:23.452Z,1005.96
2019-03-20T02:28:23.439Z,1005.96
2019-03-20T02:29:23.432Z,1005.93
2019-03-20T02:30:23.418Z,1006
2019-03-20T02:31:23.403Z,1006
2019-03-20T02:32:23.398Z,1006.01
2019-03-20T02:33:23.387Z,1005.99
2019-03-20T02:34:23.380Z,1006
2019-03-20T02:35:23.364Z,1005.99
2019-03-20T02:36:23.357Z,1005.96
2019-03-20T02:37:23.337Z,1006
2019-03-20T02:38:23.331Z,1005.99
2019-03-20T02:39:23.315Z,1006.01
2019-03-20T02:40:23.306Z,1006.06
2019-03-20T02:41:23.318Z,1006.08
2019-03-20T02:42:23.282Z,1006.06
2019-03-20T02:43:23.267Z,1006.13
2019-03-20T02:44:23.258Z,1006.11
2019-03-20T02:45:23.258Z,1006.1
2019-03-20T02:46:23.239Z,1006.08
2019-03-20T02:47:23.224Z,1006.05
2019-03-20T02:48:23.215Z,1006.05
2019-03-20T02:49:23.211Z,1006.06
2019-03-20T02:50:23.187Z,1006.08
2019-03-20T02:51:23.179Z,1006.09
2019-03-20T02:52:23.166Z,1006.12
2019-03-20T02:53:23.155Z,1006.07
2019-03-20T02:54:23.159Z,1006.1
2019-03-20T02:55:23.132Z,1006.1
2019-03-20T02:56:23.123Z,1006.08
2019-03-20T02:57:23.122Z,1006.09
2019-03-20T02:58:23.095Z,1006.08
2019-03-20T02:59:23.087Z,1006.12
2019-03-20T03:00:23.084Z,1006.1
2019-03-20T03:01:23.062Z,1006.14
2019-03-20T03:02:23.058Z,1006.13
2019-03-20T03:03:23.039Z,1006.11
2019-03-20T03:04:23.029Z,1006.15
2019-03-20T03:05:23.020Z,1006.11
2019-03-20T03:06:23.005Z,1006.13
2019-03-20T03:07:22.993Z,1006.15
2019-03-20T03:08:22.981Z,1006.13
2019-03-20T03:09:22.969Z,1006.13
2019-03-20T03:10:22.955Z,1006.13
2019-03-20T03:11:22.963Z,1006.11
2019-03-20T03:12:22.933Z,1006.11
2019-03-20T03:13:22.922Z,1006.09
2019-03-20T03:14:22.911Z,1006.09
2019-03-20T03:15:22.903Z,1006.08
2019-03-20T03:16:22.886Z,1006.11
2019-03-20T03:17:22.875Z,1006.08
2019-03-20T03:18:22.867Z,1006.08
2019-03-20T03:19:22.851Z,1006.09
2019-03-20T03:20:22.842Z,1006.08
2019-03-20T03:21:22.830Z,1006.07
2019-03-20T03:22:22.817Z,1006.07
2019-03-20T03:23:22.813Z,1006.06
2019-03-20T03:24:22.793Z,1006.01
2019-03-20T03:25:22.798Z,1006
2019-03-20T03:26:22.772Z,1006.06
2019-03-20T03:27:22.769Z,1006.03
2019-03-20T03:28:22.765Z,1006.06
2019-03-20T03:29:22.732Z,1006.06
2019-03-20T03:30:22.738Z,1006.07
2019-03-20T03:31:22.714Z,1006.11
2019-03-20T03:32:22.795Z,1006.1
2019-03-20T03:33:22.791Z,1006.11
2019-03-20T03:34:22.676Z,1006.15
2019-03-20T03:35:22.665Z,1006.14
2019-03-20T03:36:22.660Z,1006.14
2019-03-20T03:37:22.651Z,1006.16
2019-03-20T03:38:22.641Z,1006.22
2019-03-20T03:39:22.618Z,1006.21
2019-03-20T03:40:22.613Z,1006.25
2019-03-20T03:41:22.596Z,1006.21
2019-03-20T03:42:22.583Z,1006.21
2019-03-20T03:43:24.143Z,1006.24
2019-03-20T03:44:22.558Z,1006.18
2019-03-20T03:45:22.553Z,1006.19
2019-03-20T03:46:22.541Z,1006.25
2019-03-20T03:47:22.547Z,1006.22
2019-03-20T03:48:22.516Z,1006.21
2019-03-20T03:49:22.500Z,1006.27
2019-03-20T03:50:22.491Z,1006.23
2019-03-20T03:51:22.484Z,1006.25
2019-03-20T03:52:22.488Z,1006.27
2019-03-20T03:53:22.455Z,1006.25
2019-03-20T03:54:22.444Z,1006.3
2019-03-20T03:55:22.431Z,1006.28
2019-03-20T03:56:22.422Z,1006.35
2019-03-20T03:57:22.408Z,1006.4
2019-03-20T03:58:22.404Z,1006.37
2019-03-20T03:59:22.383Z,1006.4
2019-03-20T04:00:22.380Z,1006.38
2019-03-20T04:01:22.372Z,1006.46
2019-03-20T04:02:22.352Z,1006.42
2019-03-20T04:03:22.346Z,1006.47
2019-03-20T04:04:22.340Z,1006.48
2019-03-20T04:05:22.317Z,1006.48
2019-03-20T04:06:34.776Z,1006.52
2019-03-20T04:07:23.740Z,1006.49
2019-03-20T04:08:22.276Z,1006.49
2019-03-20T04:09:22.268Z,1006.49
2019-03-20T04:10:22.258Z,1006.49
2019-03-20T04:11:22.241Z,1006.47
2019-03-20T04:12:22.239Z,1006.47
2019-03-20T04:13:22.218Z,1006.45
2019-03-20T04:14:22.204Z,1006.42
2019-03-20T04:15:22.195Z,1006.43
2019-03-20T04:16:22.183Z,1006.48
2019-03-20T04:17:22.169Z,1006.48
2019-03-20T04:18:22.156Z,1006.45
2019-03-20T04:19:22.148Z,1006.47
2019-03-20T04:20:22.143Z,1006.47
2019-03-20T04:21:22.123Z,1006.46
2019-03-20T04:22:22.110Z,1006.46
2019-03-20T04:23:22.098Z,1006.46
2019-03-20T04:24:22.089Z,1006.47
2019-03-20T04:25:22.074Z,1006.45
2019-03-20T04:26:22.064Z,1006.47
2019-03-20T04:27:22.050Z,1006.46
2019-03-20T04:28:22.041Z,1006.53
2019-03-20T04:29:22.026Z,1006.5
2019-03-20T04:30:22.015Z,1006.57
2019-03-20T04:31:22.007Z,1006.56
2019-03-20T04:32:21.989Z,1006.53
2019-03-20T04:33:21.981Z,1006.52
2019-03-20T04:34:21.971Z,1006.51
2019-03-20T04:35:21.960Z,1006.52
2019-03-20T04:36:21.948Z,1006.53
2019-03-20T04:37:21.929Z,1006.55
2019-03-20T04:38:21.918Z,1006.56
2019-03-20T04:39:21.914Z,1006.59
2019-03-20T04:40:21.896Z,1006.59
2019-03-20T04:41:21.884Z,1006.66
2019-03-20T04:42:21.869Z,1006.67
2019-03-20T04:43:21.865Z,1006.71
2019-03-20T04:44:21.846Z,1006.69
2019-03-20T04:45:21.833Z,1006.76
2019-03-20T04:46:21.822Z,1006.73
2019-03-20T04:47:21.810Z,1006.76
2019-03-20T04:48:21.798Z,1006.76
2019-03-20T04:49:21.786Z,1006.8
2019-03-20T04:50:21.775Z,1006.78
2019-03-20T04:51:21.763Z,1006.77
2019-03-20T04:52:21.748Z,1006.76
2019-03-20T04:53:21.739Z,1006.78
2019-03-20T04:54:21.766Z,1006.8
2019-03-20T04:55:21.734Z,1006.79
2019-03-20T04:56:21.711Z,1006.78
2019-03-20T04:57:21.701Z,1006.8
2019-03-20T04:58:21.677Z,1006.79
2019-03-20T04:59:21.673Z,1006.8
2019-03-20T05:00:21.666Z,1006.77
2019-03-20T05:01:21.653Z,1006.79
2019-03-20T05:02:21.631Z,1006.78
2019-03-20T05:03:21.616Z,1006.82
2019-03-20T05:04:21.604Z,1006.8
2019-03-20T05:05:21.596Z,1006.82
2019-03-20T05:06:24.780Z,1006.85
2019-03-20T05:07:21.568Z,1006.84
2019-03-20T05:08:21.557Z,1006.89
2019-03-20T05:09:21.543Z,1006.87
2019-03-20T05:10:21.531Z,1006.94
2019-03-20T05:11:21.519Z,1006.95
2019-03-20T05:12:21.506Z,1006.98
2019-03-20T05:13:21.501Z,1007.04
2019-03-20T05:14:21.482Z,1007.05
2019-03-20T05:15:21.470Z,1007.09
2019-03-20T05:16:21.458Z,1007.07
2019-03-20T05:17:21.446Z,1007.06
2019-03-20T05:18:21.431Z,1007.08
2019-03-20T05:19:21.419Z,1007.13
2019-03-20T05:20:21.405Z,1007.1
2019-03-20T05:21:21.394Z,1007.13
2019-03-20T05:22:21.387Z,1007.14
2019-03-20T05:23:21.372Z,1007.15
2019-03-20T05:24:21.358Z,1007.19
2019-03-20T05:25:21.348Z,1007.17
2019-03-20T05:26:21.337Z,1007.15
2019-03-20T05:27:21.333Z,1007.19
2019-03-20T05:28:21.309Z,1007.23
2019-03-20T05:29:21.298Z,1007.22
2019-03-20T05:30:21.284Z,1007.22
2019-03-20T05:31:21.273Z,1007.21
2019-03-20T05:32:21.261Z,1007.18
2019-03-20T05:33:21.248Z,1007.21
2019-03-20T05:34:21.237Z,1007.2
2019-03-20T05:35:21.230Z,1007.23
2019-03-20T05:36:21.212Z,1007.26
2019-03-20T05:37:21.197Z,1007.25
2019-03-20T05:38:21.186Z,1007.28
2019-03-20T05:39:21.174Z,1007.25
2019-03-20T05:40:21.163Z,1007.25
2019-03-20T05:41:21.150Z,1007.27
2019-03-20T05:42:21.138Z,1007.25
2019-03-20T05:43:21.136Z,1007.22
2019-03-20T05:44:21.113Z,1007.24
2019-03-20T05:45:21.104Z,1007.18
2019-03-20T05:46:21.096Z,1007.17
2019-03-20T05:47:21.077Z,1007.21
2019-03-20T05:48:21.067Z,1007.22
2019-03-20T05:49:21.052Z,1007.25
2019-03-20T05:50:21.040Z,1007.24
2019-03-20T05:51:21.034Z,1007.25
2019-03-20T05:52:21.014Z,1007.28
2019-03-20T05:53:21.001Z,1007.3
2019-03-20T05:54:21.040Z,1007.32
2019-03-20T05:55:20.987Z,1007.37
2019-03-20T05:56:20.966Z,1007.37
2019-03-20T05:57:20.956Z,1007.37
2019-03-20T05:58:20.942Z,1007.42
2019-03-20T05:59:20.930Z,1007.42
2019-03-20T06:00:20.950Z,1007.45
2019-03-20T06:01:20.910Z,1007.45
2019-03-20T06:02:20.894Z,1007.45
2019-03-20T06:03:20.883Z,1007.48
2019-03-20T06:04:20.874Z,1007.52
2019-03-20T06:05:20.868Z,1007.54
2019-03-20T06:06:20.853Z,1007.58
2019-03-20T06:07:22.024Z,1007.57
2019-03-20T06:08:20.824Z,1007.57
2019-03-20T06:09:20.821Z,1007.55
2019-03-20T06:10:20.808Z,1007.56
2019-03-20T06:11:20.789Z,1007.52
2019-03-20T06:12:20.779Z,1007.51
2019-03-20T06:13:20.766Z,1007.48
2019-03-20T06:14:20.757Z,1007.47
2019-03-20T06:15:20.748Z,1007.46
2019-03-20T06:16:20.740Z,1007.42
2019-03-20T06:17:20.720Z,1007.45
2019-03-20T06:18:20.710Z,1007.43
2019-03-20T06:19:20.702Z,1007.46
2019-03-20T06:20:20.692Z,1007.45
2019-03-20T06:21:20.678Z,1007.44
2019-03-20T06:22:22.472Z,1007.44
2019-03-20T06:23:20.656Z,1007.44
2019-03-20T06:24:20.643Z,1007.41
2019-03-20T06:25:21.378Z,1007.4
2019-03-20T06:26:20.620Z,1007.41
2019-03-20T06:27:20.615Z,1007.46
2019-03-20T06:28:20.597Z,1007.46
2019-03-20T06:29:20.586Z,1007.39
2019-03-20T06:30:20.575Z,1007.4
2019-03-20T06:31:20.563Z,1007.46
2019-03-20T06:32:20.554Z,1007.43
2019-03-20T06:33:20.551Z,1007.42
2019-03-20T06:34:20.541Z,1007.47
2019-03-20T06:35:20.527Z,1007.53
2019-03-20T06:36:20.513Z,1007.49
2019-03-20T06:37:20.500Z,1007.54
2019-03-20T06:38:20.499Z,1007.55
2019-03-20T06:39:20.478Z,1007.67
2019-03-20T06:40:20.472Z,1007.63
2019-03-20T06:41:20.453Z,1007.69
2019-03-20T06:42:20.443Z,1007.7
2019-03-20T06:43:20.434Z,1007.69
2019-03-20T06:44:20.431Z,1007.72
2019-03-20T06:45:20.425Z,1007.73
2019-03-20T06:46:20.408Z,1007.72
2019-03-20T06:47:20.386Z,1007.7
2019-03-20T06:48:20.379Z,1007.74
2019-03-20T06:49:20.377Z,1007.72
2019-03-20T06:50:20.377Z,1007.74
2019-03-20T06:51:20.344Z,1007.76
2019-03-20T06:52:20.334Z,1007.82
2019-03-20T06:53:20.322Z,1007.8
2019-03-20T06:54:20.312Z,1007.83
2019-03-20T06:55:20.304Z,1007.8
2019-03-20T06:56:20.293Z,1007.89
2019-03-20T06:57:20.279Z,1007.9
2019-03-20T06:58:20.274Z,1007.92
2019-03-20T06:59:20.258Z,1007.94
2019-03-20T07:00:20.252Z,1008.03
2019-03-20T07:01:20.239Z,1008.03
2019-03-20T07:02:20.230Z,1007.99
2019-03-20T07:03:20.221Z,1008
2019-03-20T07:04:20.210Z,1007.96
2019-03-20T07:05:20.209Z,1007.99
2019-03-20T07:06:20.193Z,1008
2019-03-20T07:07:20.175Z,1008.01
2019-03-20T07:08:20.165Z,1008.02
2019-03-20T07:09:20.163Z,1008.02
2019-03-20T07:10:20.149Z,1008.03
2019-03-20T07:11:20.139Z,1008.02
2019-03-20T07:12:20.127Z,1008.05
2019-03-20T07:13:20.118Z,1008.08
2019-03-20T07:14:20.111Z,1008.03
2019-03-20T07:15:20.107Z,1008.01
2019-03-20T07:16:20.097Z,1008.07
2019-03-20T07:17:20.096Z,1008.06
2019-03-20T07:18:20.082Z,1008.03
2019-03-20T07:19:20.075Z,1008.05
2019-03-20T07:20:20.069Z,1008.05
2019-03-20T07:21:20.065Z,1008.11
2019-03-20T07:22:20.062Z,1008.11
2019-03-20T07:23:20.056Z,1008.07
2019-03-20T07:24:20.059Z,1008.04
2019-03-20T07:25:20.051Z,1008.11
2019-03-20T07:26:20.043Z,1008.05
2019-03-20T07:27:20.038Z,1008.03
2019-03-20T07:28:20.035Z,1008
2019-03-20T07:29:20.031Z,1008.01
2019-03-20T07:30:20.026Z,1008.02
2019-03-20T07:31:20.027Z,1008.05
2019-03-20T07:32:20.025Z,1008.03
2019-03-20T07:33:20.023Z,1008.05
2019-03-20T07:34:20.018Z,1008.07
2019-03-20T07:35:20.024Z,1008.08
2019-03-20T07:36:20.012Z,1008.08
2019-03-20T07:37:20.017Z,1008.08
2019-03-20T07:38:20.010Z,1008.06
2019-03-20T07:39:20.007Z,1008.01
2019-03-20T07:40:20.003Z,1008.07
2019-03-20T07:41:20.017Z,1008.07
2019-03-20T07:42:19.999Z,1008.04
2019-03-20T07:43:20.000Z,1008.03
2019-03-20T07:44:20.049Z,1008.06
2019-03-20T07:45:19.997Z,1008.07
2019-03-20T07:46:19.999Z,1008.09
2019-03-20T07:47:19.993Z,1008.06
2019-03-20T07:48:22.234Z,1008.02
2019-03-20T07:49:19.990Z,1008.04
2019-03-20T07:50:19.991Z,1008.06
2019-03-20T07:51:20.006Z,1008.06
2019-03-20T07:52:19.991Z,1008.06
2019-03-20T07:53:19.987Z,1008.12
2019-03-20T07:54:19.989Z,1008.08
2019-03-20T07:55:19.997Z,1008.07
2019-03-20T07:56:19.983Z,1008.07
2019-03-20T07:57:19.987Z,1008.05
2019-03-20T07:58:19.994Z,1008.04
2019-03-20T07:59:19.984Z,1008.05
2019-03-20T08:00:19.983Z,1008.08
2019-03-20T08:01:20.394Z,1008.1
2019-03-20T08:02:19.983Z,1008.04
2019-03-20T08:03:19.983Z,1008.08
2019-03-20T08:04:20.025Z,1008.05
2019-03-20T08:05:28.650Z,1008.12
2019-03-20T08:06:19.981Z,1008.1
2019-03-20T08:07:19.979Z,1008.12
2019-03-20T08:08:19.978Z,1008.12
2019-03-20T08:09:19.985Z,1008.09
2019-03-20T08:10:19.983Z,1008.1
2019-03-20T08:11:19.981Z,1008.08
2019-03-20T08:12:20.001Z,1008.1
2019-03-20T08:13:19.984Z,1008.11
2019-03-20T08:14:19.981Z,1008.13
2019-03-20T08:15:20.005Z,1008.12
2019-03-20T08:16:19.988Z,1008.15
2019-03-20T08:17:19.982Z,1008.17
2019-03-20T08:18:19.993Z,1008.17
2019-03-20T08:19:19.985Z,1008.2
2019-03-20T08:20:19.983Z,1008.17
2019-03-20T08:21:19.985Z,1008.2
2019-03-20T08:22:19.983Z,1008.23
2019-03-20T08:23:19.985Z,1008.21
2019-03-20T08:24:19.985Z,1008.21
2019-03-20T08:25:19.990Z,1008.18
2019-03-20T08:26:19.988Z,1008.23
2019-03-20T08:27:19.988Z,1008.21
2019-03-20T08:28:19.998Z,1008.24
2019-03-20T08:29:19.986Z,1008.24
2019-03-20T08:30:19.999Z,1008.27
2019-03-20T08:31:19.992Z,1008.24
2019-03-20T08:32:19.992Z,1008.24
2019-03-20T08:33:20.009Z,1008.2
2019-03-20T08:34:20.003Z,1008.18
2019-03-20T08:35:19.996Z,1008.21
2019-03-20T08:36:20.005Z,1008.24
2019-03-20T08:37:19.991Z,1008.18
2019-03-20T08:38:19.996Z,1008.18
2019-03-20T08:39:19.994Z,1008.21
2019-03-20T08:40:21.419Z,1008.22
2019-03-20T08:41:19.989Z,1008.27
2019-03-20T08:42:20.003Z,1008.23
2019-03-20T08:43:19.993Z,1008.25
2019-03-20T08:44:19.992Z,1008.22
2019-03-20T08:45:19.974Z,1008.24
2019-03-20T08:46:19.988Z,1008.26
2019-03-20T08:47:19.984Z,1008.24
2019-03-20T08:48:19.980Z,1008.26
2019-03-20T08:49:19.979Z,1008.26
2019-03-20T08:50:19.973Z,1008.27
2019-03-20T08:51:19.974Z,1008.26
2019-03-20T08:52:19.963Z,1008.31
2019-03-20T08:53:19.946Z,1008.24
2019-03-20T08:54:19.957Z,1008.24
2019-03-20T08:55:19.951Z,1008.21
2019-03-20T08:56:19.946Z,1008.24
2019-03-20T08:57:19.949Z,1008.23
2019-03-20T08:58:19.936Z,1008.23
2019-03-20T08:59:19.934Z,1008.22
2019-03-20T09:00:19.930Z,1008.23
2019-03-20T09:01:28.034Z,1008.26
2019-03-20T09:02:19.905Z,1008.26
2019-03-20T09:03:19.899Z,1008.3
2019-03-20T09:04:19.903Z,1008.27
2019-03-20T09:05:19.887Z,1008.3
2019-03-20T09:06:19.885Z,1008.28
2019-03-20T09:07:19.882Z,1008.31
2019-03-20T09:08:28.697Z,1008.35
2019-03-20T09:09:19.871Z,1008.33
2019-03-20T09:10:19.866Z,1008.34
2019-03-20T09:11:19.861Z,1008.33
2019-03-20T09:12:19.870Z,1008.34
2019-03-20T09:13:19.870Z,1008.33
2019-03-20T09:14:19.857Z,1008.31
2019-03-20T09:15:19.856Z,1008.34
2019-03-20T09:16:19.849Z,1008.35
2019-03-20T09:17:19.863Z,1008.31
2019-03-20T09:18:19.824Z,1008.35
2019-03-20T09:19:19.820Z,1008.35
2019-03-20T09:20:19.819Z,1008.3
2019-03-20T09:21:19.808Z,1008.32
2019-03-20T09:22:19.803Z,1008.34
2019-03-20T09:23:19.799Z,1008.36
2019-03-20T09:24:19.794Z,1008.33
2019-03-20T09:25:19.793Z,1008.32
2019-03-20T09:26:19.790Z,1008.27
2019-03-20T09:27:19.781Z,1008.25
2019-03-20T09:28:19.774Z,1008.29
2019-03-20T09:29:19.766Z,1008.25
2019-03-20T09:30:19.762Z,1008.32
2019-03-20T09:31:19.755Z,1008.29
2019-03-20T09:32:19.749Z,1008.29
2019-03-20T09:33:19.759Z,1008.29
2019-03-20T09:34:19.756Z,1008.28
2019-03-20T09:35:19.745Z,1008.33
2019-03-20T09:36:19.733Z,1008.27
2019-03-20T09:37:19.725Z,1008.3
2019-03-20T09:38:19.720Z,1008.29
2019-03-20T09:39:19.715Z,1008.34
2019-03-20T09:40:19.709Z,1008.33
2019-03-20T09:41:19.706Z,1008.32
2019-03-20T09:42:19.695Z,1008.31
2019-03-20T09:43:19.691Z,1008.28
2019-03-20T09:44:19.688Z,1008.3
2019-03-20T09:45:19.682Z,1008.33
2019-03-20T09:46:19.677Z,1008.3
2019-03-20T09:47:19.669Z,1008.3
2019-03-20T09:48:19.666Z,1008.29
2019-03-20T09:49:19.660Z,1008.31
2019-03-20T09:50:19.658Z,1008.31
2019-03-20T09:51:19.667Z,1008.31
2019-03-20T09:52:19.653Z,1008.31
2019-03-20T09:53:19.641Z,1008.27
2019-03-20T09:54:19.639Z,1008.31
2019-03-20T09:55:19.631Z,1008.34
2019-03-20T09:56:19.659Z,1008.33
2019-03-20T09:57:19.617Z,1008.32
2019-03-20T09:58:19.612Z,1008.33
2019-03-20T09:59:19.608Z,1008.32
2019-03-20T10:00:19.602Z,1008.35
2019-03-20T10:01:19.599Z,1008.32
2019-03-20T10:02:19.597Z,1008.32
2019-03-20T10:03:19.592Z,1008.3
2019-03-20T10:04:19.583Z,1008.28
2019-03-20T10:05:19.577Z,1008.25
2019-03-20T10:06:19.572Z,1008.27
2019-03-20T10:07:19.575Z,1008.23
2019-03-20T10:08:19.562Z,1008.24
2019-03-20T10:09:19.573Z,1008.22
2019-03-20T10:10:19.574Z,1008.28
2019-03-20T10:11:19.572Z,1008.21
2019-03-20T10:12:19.556Z,1008.25
2019-03-20T10:13:19.553Z,1008.21
2019-03-20T10:14:19.548Z,1008.25
2019-03-20T10:15:19.528Z,1008.24
2019-03-20T10:16:19.541Z,1008.26
2019-03-20T10:17:19.522Z,1008.25
2019-03-20T10:18:19.529Z,1008.21
2019-03-20T10:19:19.526Z,1008.21
2019-03-20T10:20:19.528Z,1008.21
2019-03-20T10:21:19.499Z,1008.2
2019-03-20T10:22:19.495Z,1008.19
2019-03-20T10:23:19.503Z,1008.21
2019-03-20T10:24:19.501Z,1008.21
2019-03-20T10:25:19.482Z,1008.2
2019-03-20T10:26:19.474Z,1008.22
2019-03-20T10:27:19.486Z,1008.22
2019-03-20T10:28:19.467Z,1008.22
2019-03-20T10:29:19.477Z,1008.24
2019-03-20T10:30:19.459Z,1008.19
2019-03-20T10:31:19.460Z,1008.24
2019-03-20T10:32:19.459Z,1008.24
2019-03-20T10:33:19.446Z,1008.23
2019-03-20T10:34:19.465Z,1008.21
2019-03-20T10:35:19.437Z,1008.25
2019-03-20T10:36:19.432Z,1008.27
2019-03-20T10:37:19.441Z,1008.28
2019-03-20T10:38:19.421Z,1008.27
2019-03-20T10:39:19.432Z,1008.24
2019-03-20T10:40:19.425Z,1008.27
2019-03-20T10:41:19.436Z,1008.27
2019-03-20T10:42:19.441Z,1008.26
2019-03-20T10:43:19.432Z,1008.25
2019-03-20T10:44:19.410Z,1008.25
2019-03-20T10:45:19.421Z,1008.23
2019-03-20T10:46:19.401Z,1008.25
2019-03-20T10:47:19.402Z,1008.27
2019-03-20T10:48:19.408Z,1008.25
2019-03-20T10:49:19.393Z,1008.16
2019-03-20T10:50:21.371Z,1008.16
2019-03-20T10:51:19.384Z,1008.12
2019-03-20T10:52:19.381Z,1008.14
2019-03-20T10:53:19.381Z,1008.17
2019-03-20T10:54:19.370Z,1008.14
2019-03-20T10:55:19.361Z,1008.13
2019-03-20T10:56:19.363Z,1008.15
2019-03-20T10:57:19.357Z,1008.17
2019-03-20T10:58:19.367Z,1008.19
2019-03-20T10:59:19.349Z,1008.15
2019-03-20T11:00:19.344Z,1008.17
2019-03-20T11:01:19.348Z,1008.2
2019-03-20T11:02:19.335Z,1008.19
2019-03-20T11:03:19.334Z,1008.15
2019-03-20T11:04:19.327Z,1008.12
2019-03-20T11:05:19.321Z,1008.15
2019-03-20T11:06:19.327Z,1008.11
2019-03-20T11:07:19.319Z,1008.16
2019-03-20T11:08:19.332Z,1008.15
2019-03-20T11:09:19.313Z,1008.16
2019-03-20T11:10:19.324Z,1008.18
2019-03-20T11:11:26.812Z,1008.12
2019-03-20T11:12:19.293Z,1008.17
2019-03-20T11:13:19.293Z,1008.17
2019-03-20T11:14:19.285Z,1008.12
2019-03-20T11:15:19.283Z,1008.12
2019-03-20T11:16:19.279Z,1008.15
2019-03-20T11:17:19.273Z,1008.09
2019-03-20T11:18:19.271Z,1008.12
2019-03-20T11:19:19.285Z,1008.17
2019-03-20T11:20:19.269Z,1008.18
2019-03-20T11:21:19.255Z,1008.13
2019-03-20T11:22:19.368Z,1008.16
2019-03-20T11:23:19.256Z,1008.13
2019-03-20T11:24:19.248Z,1008.11
2019-03-20T11:25:19.243Z,1008.06
2019-03-20T11:26:19.239Z,1008.08
2019-03-20T11:27:19.235Z,1008.01
2019-03-20T11:28:19.232Z,1008
2019-03-20T11:29:21.685Z,1008.02
2019-03-20T11:30:19.224Z,1008.05
2019-03-20T11:31:19.225Z,1008.01
2019-03-20T11:32:19.217Z,1008.06
2019-03-20T11:33:19.214Z,1008.06
2019-03-20T11:34:19.207Z,1008.05
2019-03-20T11:35:19.202Z,1008.03
2019-03-20T11:36:19.198Z,1007.99
2019-03-20T11:37:19.201Z,1008.05
2019-03-20T11:38:19.189Z,1008.02
2019-03-20T11:39:29.128Z,1008.03
2019-03-20T11:40:19.183Z,1007.99
2019-03-20T11:41:19.186Z,1007.99
2019-03-20T11:42:19.177Z,1007.99
2019-03-20T11:43:19.181Z,1007.97
2019-03-20T11:44:19.187Z,1008.01
2019-03-20T11:45:19.166Z,1007.95
2019-03-20T11:46:19.160Z,1007.94
2019-03-20T11:47:19.156Z,1008.03
2019-03-20T11:48:19.151Z,1007.97
2019-03-20T11:49:19.148Z,1007.93
2019-03-20T11:50:19.143Z,1007.91
2019-03-20T11:51:19.139Z,1007.89
2019-03-20T11:52:19.146Z,1007.88
2019-03-20T11:53:19.141Z,1007.85
2019-03-20T11:54:19.167Z,1007.9
2019-03-20T11:55:19.129Z,1007.9
2019-03-20T11:56:19.127Z,1007.88
2019-03-20T11:57:21.561Z,1007.86
2019-03-20T11:58:19.117Z,1007.81
2019-03-20T11:59:19.109Z,1007.76
2019-03-20T12:00:19.104Z,1007.77
2019-03-20T12:01:19.102Z,1007.72
2019-03-20T12:02:27.612Z,1007.65
2019-03-20T12:03:19.097Z,1007.66
2019-03-20T12:04:19.092Z,1007.67
2019-03-20T12:05:19.087Z,1007.65
2019-03-20T12:06:19.082Z,1007.64
2019-03-20T12:07:19.080Z,1007.65
2019-03-20T12:08:19.081Z,1007.61